createdAt,value
2019-04-07T00:01:39.266Z,44.65
2019-04-07T00:04:07.698Z,41.60
2019-04-07T00:06:35.473Z,44.90
2019-04-07T00:09:03.882Z,42.13
2019-04-07T00:11:31.260Z,43.33
2019-04-07T00:13:59.249Z,43.15
2019-04-07T00:16:27.308Z,41.70
2019-04-07T00:18:55.685Z,43.00
2019-04-07T00:21:23.239Z,43.08
2019-04-07T00:23:51.004Z,41.97
2019-04-07T00:26:19.168Z,41.15
2019-04-07T00:28:47.167Z,41.60
2019-04-07T00:31:15.021Z,42.50
2019-04-07T00:33:43.749Z,41.95
2019-04-07T00:36:11.286Z,40.63
2019-04-07T00:38:39.391Z,40.55
2019-04-07T00:41:07.923Z,40.58
2019-04-07T00:43:35.486Z,39.97
2019-04-07T00:46:03.566Z,40.80
2019-04-07T00:48:31.330Z,40.08
2019-04-07T00:51:00.234Z,42.22
2019-04-07T00:53:27.761Z,42.13
2019-04-07T00:55:56.256Z,41.10
2019-04-07T00:58:24.638Z,43.70
2019-04-07T01:00:53.023Z,41.55
2019-04-07T01:03:20.250Z,43.70
2019-04-07T01:05:48.408Z,43.15
2019-04-07T01:08:16.187Z,41.20
2019-04-07T01:10:43.955Z,42.22
2019-04-07T01:13:12.122Z,42.30
2019-04-07T01:15:40.596Z,43.80
2019-04-07T01:18:07.989Z,42.20
2019-04-07T01:20:35.851Z,41.40
2019-04-07T01:23:03.966Z,39.42
2019-04-07T01:25:31.683Z,41.50
2019-04-07T01:27:59.752Z,40.50
2019-04-07T01:30:27.836Z,43.55
2019-04-07T01:32:56.333Z,41.17
2019-04-07T01:35:23.980Z,43.03
2019-04-07T01:37:52.472Z,42.15
2019-04-07T01:40:21.002Z,42.47
2019-04-07T01:43:20.283Z,43.30
2019-04-07T01:46:08.893Z,41.35
2019-04-07T01:49:13.940Z,42.33
2019-04-07T01:52:10.866Z,40.97
2019-04-07T01:54:49.408Z,40.90
2019-04-07T01:57:31.048Z,39.25
2019-04-07T02:00:17.208Z,41.30
2019-04-07T02:03:07.519Z,40.35
2019-04-07T02:05:59.185Z,40.90
2019-04-07T02:08:34.210Z,37.90
2019-04-07T02:11:21.188Z,37.17
2019-04-07T02:14:02.103Z,38.05
2019-04-07T02:16:58.623Z,40.42
2019-04-07T02:19:40.465Z,41.15
2019-04-07T02:22:26.453Z,40.85
2019-04-07T02:25:07.692Z,42.08
2019-04-07T02:27:54.565Z,41.20
2019-04-07T02:30:39.294Z,40.75
2019-04-07T02:33:28.837Z,41.37
2019-04-07T02:36:21.401Z,41.37
2019-04-07T02:39:19.420Z,41.10
2019-04-07T02:42:11.591Z,36.92
2019-04-07T02:44:57.825Z,41.92
2019-04-07T02:47:36.138Z,39.75
2019-04-07T02:50:30.130Z,36.70
2019-04-07T02:53:05.707Z,39.53
2019-04-07T02:55:55.096Z,39.72
2019-04-07T02:58:28.107Z,40.20
2019-04-07T03:01:04.446Z,40.10
2019-04-07T03:03:44.604Z,38.60
2019-04-07T03:06:47.721Z,40.10
2019-04-07T03:09:33.100Z,37.70
2019-04-07T03:12:37.329Z,39.38
2019-04-07T03:15:15.019Z,39.10
2019-04-07T03:18:20.195Z,39.67
2019-04-07T03:20:54.183Z,36.00
2019-04-07T03:23:31.725Z,38.63
2019-04-07T03:26:18.354Z,37.45
2019-04-07T03:28:55.763Z,39.40
2019-04-07T03:31:32.170Z,38.65
2019-04-07T03:34:14.836Z,38.25
2019-04-07T03:37:21.320Z,40.72
2019-04-07T03:39:49.293Z,39.15
2019-04-07T03:42:38.858Z,38.22
2019-04-07T03:45:32.726Z,38.13
2019-04-07T03:48:19.552Z,37.25
2019-04-07T03:51:06.887Z,47.70
2019-04-07T03:53:54.068Z,40.70
2019-04-07T03:56:49.947Z,40.92
2019-04-07T03:59:40.641Z,39.42
2019-04-07T04:02:26.457Z,38.35
2019-04-07T04:04:58.491Z,37.20
2019-04-07T04:07:40.533Z,40.30
2019-04-07T04:10:36.454Z,41.78
2019-04-07T04:13:42.292Z,42.17
2019-04-07T04:16:18.490Z,40.92
2019-04-07T04:18:46.597Z,39.20
2019-04-07T04:21:15.310Z,41.05
2019-04-07T04:23:43.568Z,42.53
2019-04-07T04:26:10.415Z,39.08
2019-04-07T04:28:39.051Z,40.97
2019-04-07T04:31:06.745Z,42.13
2019-04-07T04:33:34.823Z,40.15
2019-04-07T04:36:02.807Z,39.33
2019-04-07T04:38:30.272Z,34.00
2019-04-07T04:41:00.142Z,37.55
2019-04-07T04:43:27.920Z,37.03
2019-04-07T04:45:56.832Z,35.92
2019-04-07T04:48:24.567Z,38.03
2019-04-07T04:50:52.654Z,37.80
2019-04-07T04:53:20.710Z,37.80
2019-04-07T04:55:48.803Z,38.67
2019-04-07T04:58:17.504Z,37.53
2019-04-07T05:00:44.927Z,37.85
2019-04-07T05:03:12.801Z,36.72
2019-04-07T05:05:41.407Z,36.08
2019-04-07T05:08:09.418Z,36.90
2019-04-07T05:10:37.811Z,36.33
2019-04-07T05:13:05.777Z,40.42
2019-04-07T05:15:34.332Z,38.80
2019-04-07T05:18:02.228Z,40.15
2019-04-07T05:20:30.006Z,38.85
2019-04-07T05:22:58.645Z,39.55
2019-04-07T05:25:27.356Z,40.72
2019-04-07T05:27:54.660Z,40.30
2019-04-07T05:30:22.594Z,40.12
2019-04-07T05:32:50.773Z,39.05
2019-04-07T05:35:18.835Z,37.08
2019-04-07T05:37:46.905Z,38.95
2019-04-07T05:40:15.526Z,38.70
2019-04-07T05:42:43.349Z,35.75
2019-04-07T05:45:11.556Z,36.28
2019-04-07T05:47:43.602Z,37.95
2019-04-07T05:50:07.773Z,36.30
2019-04-07T05:52:39.571Z,37.28
2019-04-07T05:55:04.537Z,35.53
2019-04-07T05:57:34.851Z,38.05
2019-04-07T06:00:01.321Z,36.75
2019-04-07T06:02:31.280Z,35.10
2019-04-07T06:04:58.674Z,35.35
2019-04-07T06:07:28.831Z,35.20
2019-04-07T06:09:53.524Z,34.03
2019-04-07T06:12:21.598Z,36.50
2019-04-07T06:14:49.818Z,34.90
2019-04-07T06:17:17.338Z,37.67
2019-04-07T06:19:45.153Z,36.65
2019-04-07T06:22:13.433Z,34.35
2019-04-07T06:24:41.524Z,35.40
2019-04-07T06:27:09.796Z,37.20
2019-04-07T06:29:37.750Z,36.08
2019-04-07T06:32:07.259Z,36.75
2019-04-07T06:34:33.732Z,35.95
2019-04-07T06:37:01.028Z,34.58
2019-04-07T06:39:31.860Z,34.75
2019-04-07T06:42:00.431Z,32.28
2019-04-07T06:44:25.538Z,33.00
2019-04-07T06:47:11.852Z,33.78
2019-04-07T06:49:55.083Z,34.38
2019-04-07T06:52:42.055Z,33.72
2019-04-07T06:55:33.013Z,33.80
2019-04-07T06:58:27.198Z,33.65
2019-04-07T07:01:12.277Z,34.42
2019-04-07T07:04:17.961Z,30.98
2019-04-07T07:07:06.284Z,31.87
2019-04-07T07:09:59.830Z,33.60
2019-04-07T07:12:43.060Z,30.92
2019-04-07T07:15:23.373Z,33.97
2019-04-07T07:18:10.252Z,32.78
2019-04-07T07:20:48.029Z,33.13
2019-04-07T07:23:19.549Z,32.88
2019-04-07T07:25:47.562Z,30.95
2019-04-07T07:28:16.088Z,33.15
2019-04-07T07:30:43.733Z,31.85
2019-04-07T07:33:11.562Z,32.58
2019-04-07T07:35:39.926Z,32.47
2019-04-07T07:38:08.087Z,30.37
2019-04-07T07:40:35.980Z,31.33
2019-04-07T07:43:04.414Z,31.12
2019-04-07T07:45:32.933Z,31.60
2019-04-07T07:48:00.067Z,29.95
2019-04-07T07:50:28.501Z,29.25
2019-04-07T07:52:58.592Z,31.35
2019-04-07T07:55:27.398Z,30.55
2019-04-07T07:57:58.170Z,29.48
2019-04-07T08:00:22.938Z,31.20
2019-04-07T08:02:52.505Z,29.00
2019-04-07T08:05:18.841Z,32.35
2019-04-07T08:07:48.395Z,32.33
2019-04-07T08:10:14.973Z,30.02
2019-04-07T08:12:43.768Z,30.40
2019-04-07T08:15:11.669Z,28.92
2019-04-07T08:17:40.976Z,31.67
2019-04-07T08:20:11.318Z,31.65
2019-04-07T08:22:42.907Z,29.23
2019-04-07T08:25:05.299Z,32.15
2019-04-07T08:27:34.378Z,29.75
2019-04-07T08:30:02.625Z,31.12
2019-04-07T08:32:32.283Z,29.67
2019-04-07T08:35:01.462Z,30.92
2019-04-07T08:37:25.800Z,30.73
2019-04-07T08:39:56.679Z,31.23
2019-04-07T08:42:22.656Z,29.52
2019-04-07T08:44:49.912Z,31.92
2019-04-07T08:47:21.169Z,31.20
2019-04-07T08:49:45.995Z,32.55
2019-04-07T08:52:14.040Z,30.88
2019-04-07T08:54:48.874Z,31.48
2019-04-07T08:57:13.168Z,32.17
2019-04-07T08:59:42.980Z,32.78
2019-04-07T09:02:09.195Z,31.00
2019-04-07T09:04:37.283Z,30.88
2019-04-07T09:07:05.547Z,30.35
2019-04-07T09:09:36.272Z,30.67
2019-04-07T09:12:01.897Z,31.90
2019-04-07T09:14:29.536Z,31.00
2019-04-07T09:17:09.261Z,32.92
2019-04-07T09:20:10.411Z,31.58
2019-04-07T09:22:45.450Z,31.58
2019-04-07T09:25:21.419Z,30.73
2019-04-07T09:27:54.003Z,31.95
2019-04-07T09:30:40.890Z,30.67
2019-04-07T09:33:35.719Z,30.70
2019-04-07T09:36:16.973Z,31.12
2019-04-07T09:39:03.942Z,29.33
2019-04-07T09:41:55.654Z,31.87
2019-04-07T09:44:49.369Z,30.37
2019-04-07T09:47:35.827Z,29.52
2019-04-07T09:50:21.831Z,30.62
2019-04-07T09:53:07.067Z,31.27
2019-04-07T09:55:56.897Z,29.63
2019-04-07T09:58:45.379Z,29.37
2019-04-07T10:01:27.818Z,30.23
2019-04-07T10:04:12.105Z,27.33
2019-04-07T10:07:03.634Z,29.10
2019-04-07T10:10:10.307Z,29.90
2019-04-07T10:12:47.131Z,28.80
2019-04-07T10:15:29.655Z,29.45
2019-04-07T10:18:06.026Z,29.08
2019-04-07T10:20:58.876Z,28.75
2019-04-07T10:23:40.281Z,30.10
2019-04-07T10:26:32.532Z,26.67
2019-04-07T10:29:09.777Z,26.05
2019-04-07T10:31:55.437Z,23.90
2019-04-07T10:34:43.621Z,24.12
2019-04-07T10:37:42.815Z,25.55
2019-04-07T10:40:29.114Z,22.90
2019-04-07T10:43:28.177Z,22.17
2019-04-07T10:46:02.813Z,22.27
2019-04-07T10:48:38.914Z,22.23
2019-04-07T10:51:26.228Z,22.25
2019-04-07T10:54:25.427Z,23.50
2019-04-07T10:57:09.964Z,23.45
2019-04-07T10:59:41.796Z,23.33
2019-04-07T11:02:37.740Z,23.38
2019-04-07T11:05:17.490Z,24.55
2019-04-07T11:08:03.186Z,24.37
2019-04-07T11:10:48.432Z,23.35
2019-04-07T11:13:35.276Z,20.70
2019-04-07T11:16:31.308Z,18.17
2019-04-07T11:19:18.821Z,20.67
2019-04-07T11:22:14.493Z,21.17
2019-04-07T11:25:01.091Z,21.60
2019-04-07T11:27:50.439Z,20.08
2019-04-07T11:30:28.859Z,19.33
2019-04-07T11:33:01.868Z,19.55
2019-04-07T11:35:41.966Z,20.92
2019-04-07T11:38:26.719Z,20.20
2019-04-07T11:41:12.450Z,20.73
2019-04-07T11:44:14.937Z,17.70
2019-04-07T11:47:07.250Z,16.52
2019-04-07T11:49:42.644Z,16.35
2019-04-07T11:52:26.027Z,14.70
2019-04-07T11:55:11.920Z,17.67
2019-04-07T11:58:09.743Z,13.60
2019-04-07T12:00:57.119Z,13.93
2019-04-07T12:03:35.608Z,13.45
2019-04-07T12:06:31.750Z,13.88
2019-04-07T12:09:08.927Z,12.40
2019-04-07T12:11:49.380Z,11.90
2019-04-07T12:14:24.428Z,12.07
2019-04-07T12:17:15.021Z,12.30
2019-04-07T12:19:55.053Z,12.57
2019-04-07T12:22:39.341Z,12.68
2019-04-07T12:25:29.361Z,12.73
2019-04-07T12:28:30.109Z,13.05
2019-04-07T12:31:13.876Z,14.25
2019-04-07T12:33:50.652Z,14.40
2019-04-07T12:36:40.815Z,12.85
2019-04-07T12:39:26.855Z,12.23
2019-04-07T12:42:09.886Z,12.68
2019-04-07T12:44:44.122Z,12.77
2019-04-07T12:47:18.113Z,13.93
2019-04-07T12:50:06.812Z,14.38
2019-04-07T12:52:57.797Z,14.52
2019-04-07T12:56:02.451Z,13.23
2019-04-07T12:58:48.533Z,13.38
2019-04-07T13:01:47.059Z,14.48
2019-04-07T13:04:34.217Z,14.20
2019-04-07T13:07:20.625Z,13.77
2019-04-07T13:10:10.535Z,14.80
2019-04-07T13:13:03.788Z,11.93
2019-04-07T13:15:49.783Z,14.80
2019-04-07T13:18:25.518Z,12.07
2019-04-07T13:21:24.559Z,13.43
2019-04-07T13:24:12.713Z,12.43
2019-04-07T13:26:48.853Z,13.40
2019-04-07T13:29:29.125Z,13.32
2019-04-07T13:32:01.814Z,13.13
2019-04-07T13:34:57.850Z,12.37
2019-04-07T13:37:43.729Z,14.18
2019-04-07T13:40:36.463Z,14.35
2019-04-07T13:43:24.684Z,13.68
2019-04-07T13:46:17.094Z,13.13
2019-04-07T13:48:57.784Z,12.90
2019-04-07T13:51:37.172Z,13.48
2019-04-07T13:54:33.628Z,14.25
2019-04-07T13:57:26.087Z,13.00
2019-04-07T14:00:13.379Z,12.93
2019-04-07T14:02:58.780Z,13.55
2019-04-07T14:06:03.458Z,13.35
2019-04-07T14:08:41.603Z,13.57
2019-04-07T14:11:28.594Z,14.25
2019-04-07T14:14:22.211Z,14.45
2019-04-07T14:17:17.907Z,14.57
2019-04-07T14:20:08.811Z,14.32
2019-04-07T14:22:55.561Z,14.18
2019-04-07T14:25:32.032Z,14.90
2019-04-07T14:28:21.620Z,14.38
2019-04-07T14:31:14.202Z,13.68
2019-04-07T14:34:00.043Z,14.80
2019-04-07T14:36:53.562Z,13.95
2019-04-07T14:39:35.894Z,12.85
2019-04-07T14:42:41.751Z,14.43
2019-04-07T14:45:28.333Z,15.38
2019-04-07T14:48:07.463Z,12.70
2019-04-07T14:51:10.118Z,15.15
2019-04-07T14:53:55.727Z,13.75
2019-04-07T14:56:42.114Z,14.95
2019-04-07T14:59:28.463Z,14.55
2019-04-07T15:01:56.022Z,14.25
2019-04-07T15:04:24.830Z,14.15
2019-04-07T15:07:08.890Z,14.43
2019-04-07T15:09:43.938Z,14.93
2019-04-07T15:12:24.036Z,14.35
2019-04-07T15:14:49.141Z,14.57
2019-04-07T15:17:17.681Z,15.20
2019-04-07T15:19:46.190Z,14.73
2019-04-07T15:22:13.415Z,15.40
2019-04-07T15:24:42.757Z,14.10
2019-04-07T15:27:09.670Z,15.05
2019-04-07T15:29:40.792Z,15.27
2019-04-07T15:32:07.227Z,15.10
2019-04-07T15:34:35.205Z,14.20
2019-04-07T15:37:04.092Z,15.57
2019-04-07T15:39:31.209Z,15.52
2019-04-07T15:41:59.542Z,14.55
2019-04-07T15:44:27.386Z,17.20
2019-04-07T15:46:55.466Z,16.23
2019-04-07T15:49:26.234Z,14.98
2019-04-07T15:51:51.622Z,16.33
2019-04-07T15:54:22.371Z,16.40
2019-04-07T15:56:50.148Z,12.70
2019-04-07T15:59:17.936Z,12.07
2019-04-07T16:01:44.411Z,11.73
2019-04-07T16:04:12.781Z,12.18
2019-04-07T16:06:40.828Z,13.10
2019-04-07T16:09:14.104Z,13.15
2019-04-07T16:11:36.999Z,14.20
2019-04-07T16:14:12.586Z,15.13
2019-04-07T16:16:33.662Z,14.10
2019-04-07T16:19:01.977Z,13.77
2019-04-07T16:21:30.125Z,12.57
2019-04-07T16:23:58.164Z,12.00
2019-04-07T16:26:26.385Z,11.38
2019-04-07T16:28:55.178Z,10.30
2019-04-07T16:31:25.425Z,11.90
2019-04-07T16:33:51.797Z,13.98
2019-04-07T16:36:19.648Z,13.88
2019-04-07T16:38:47.022Z,13.77
2019-04-07T16:41:15.190Z,13.98
2019-04-07T16:43:43.297Z,14.52
2019-04-07T16:46:13.660Z,15.38
2019-04-07T16:48:40.269Z,14.48
2019-04-07T16:51:07.589Z,11.90
2019-04-07T16:53:37.946Z,13.27
2019-04-07T16:56:05.215Z,14.13
2019-04-07T16:58:35.306Z,13.55
2019-04-07T17:01:01.262Z,14.20
2019-04-07T17:03:29.005Z,15.50
2019-04-07T17:05:59.360Z,14.80
2019-04-07T17:08:26.691Z,14.43
2019-04-07T17:10:53.858Z,15.68
2019-04-07T17:13:31.455Z,15.15
2019-04-07T17:15:51.654Z,15.10
2019-04-07T17:18:33.319Z,15.00
2019-04-07T17:21:00.318Z,15.07
2019-04-07T17:23:29.013Z,15.43
2019-04-07T17:25:57.009Z,15.40
2019-04-07T17:28:24.623Z,16.00
2019-04-07T17:30:56.178Z,16.40
2019-04-07T17:33:21.071Z,16.40
2019-04-07T17:35:51.959Z,15.70
2019-04-07T17:38:18.287Z,15.10
2019-04-07T17:40:50.103Z,14.50
2019-04-07T17:43:35.579Z,16.67
2019-04-07T17:46:10.515Z,15.68
2019-04-07T17:48:52.502Z,16.02
2019-04-07T17:51:30.723Z,15.70
2019-04-07T17:54:19.496Z,16.73
2019-04-07T17:57:05.460Z,16.30
2019-04-07T17:59:50.433Z,17.33
2019-04-07T18:02:28.061Z,14.90
2019-04-07T18:05:12.689Z,15.93
2019-04-07T18:08:15.803Z,17.85
2019-04-07T18:11:04.342Z,17.30
2019-04-07T18:13:51.201Z,16.55
2019-04-07T18:16:36.399Z,16.33
2019-04-07T18:19:22.620Z,14.70
2019-04-07T18:22:09.209Z,16.08
2019-04-07T18:24:54.766Z,15.85
2019-04-07T18:27:26.913Z,16.05
2019-04-07T18:30:16.431Z,14.52
2019-04-07T18:33:09.831Z,14.32
2019-04-07T18:36:05.072Z,15.10
2019-04-07T18:38:45.680Z,15.38
2019-04-07T18:41:34.040Z,14.63
2019-04-07T18:44:15.162Z,14.13
2019-04-07T18:47:04.813Z,14.90
2019-04-07T18:49:50.369Z,14.00
2019-04-07T18:52:33.590Z,14.57
2019-04-07T18:55:33.285Z,13.88
2019-04-07T18:58:18.412Z,14.02
2019-04-07T19:01:07.350Z,13.10
2019-04-07T19:03:51.042Z,13.93
2019-04-07T19:06:24.765Z,12.48
2019-04-07T19:09:01.404Z,14.02
2019-04-07T19:11:50.309Z,13.65
2019-04-07T19:14:44.544Z,11.55
2019-04-07T19:17:25.938Z,13.62
2019-04-07T19:20:12.989Z,13.62
2019-04-07T19:23:11.467Z,12.75
2019-04-07T19:25:57.833Z,12.95
2019-04-07T19:28:35.706Z,12.95
2019-04-07T19:31:16.194Z,12.90
2019-04-07T19:34:04.766Z,13.18
2019-04-07T19:37:02.145Z,12.93
2019-04-07T19:39:45.672Z,14.25
2019-04-07T19:42:39.885Z,14.23
2019-04-07T19:45:35.093Z,14.38
2019-04-07T19:48:28.852Z,14.25
2019-04-07T19:51:22.533Z,14.32
2019-04-07T19:54:07.802Z,13.45
2019-04-07T19:56:46.098Z,11.73
2019-04-07T19:59:41.602Z,13.85
2019-04-07T20:02:22.594Z,12.70
2019-04-07T20:05:10.345Z,12.90
2019-04-07T20:08:02.548Z,12.73
2019-04-07T20:10:42.534Z,13.07
2019-04-07T20:13:47.129Z,12.07
2019-04-07T20:16:24.504Z,13.18
2019-04-07T20:19:15.118Z,14.00
2019-04-07T20:22:01.658Z,13.13
2019-04-07T20:24:49.159Z,13.57
2019-04-07T20:27:28.775Z,13.13
2019-04-07T20:30:28.369Z,14.15
2019-04-07T20:33:14.348Z,13.70
2019-04-07T20:35:54.363Z,13.10
2019-04-07T20:38:51.729Z,13.05
2019-04-07T20:41:26.254Z,13.50
2019-04-07T20:44:18.849Z,13.65
2019-04-07T20:47:04.599Z,13.20
2019-04-07T20:49:50.648Z,14.55
2019-04-07T20:53:07.199Z,14.70
2019-04-07T20:55:29.403Z,13.85
2019-04-07T20:58:22.046Z,11.93
2019-04-07T21:01:17.506Z,12.50
2019-04-07T21:03:57.842Z,12.40
2019-04-07T21:06:50.796Z,12.73
2019-04-07T21:09:35.813Z,13.35
2019-04-07T21:12:29.728Z,12.95
2019-04-07T21:15:30.042Z,13.07
2019-04-07T21:18:11.108Z,12.57
2019-04-07T21:20:57.493Z,13.27
2019-04-07T21:23:46.193Z,12.80
2019-04-07T21:26:37.159Z,12.32
2019-04-07T21:29:14.881Z,13.35
2019-04-07T21:31:54.647Z,12.23
2019-04-07T21:34:36.433Z,12.85
2019-04-07T21:37:13.538Z,11.80
2019-04-07T21:40:02.826Z,13.05
2019-04-07T21:42:34.550Z,13.02
2019-04-07T21:45:32.639Z,12.35
2019-04-07T21:48:03.281Z,13.65
2019-04-07T21:50:46.995Z,11.82
2019-04-07T21:53:25.720Z,12.50
2019-04-07T21:56:22.172Z,12.43
2019-04-07T21:59:07.488Z,12.52
2019-04-07T22:01:46.150Z,12.05
2019-04-07T22:04:27.342Z,13.65
2019-04-07T22:07:27.644Z,12.90
2019-04-07T22:09:59.078Z,13.93
2019-04-07T22:12:30.183Z,12.60
2019-04-07T22:14:55.552Z,12.75
2019-04-07T22:17:23.628Z,13.40
2019-04-07T22:19:51.663Z,13.85
2019-04-07T22:22:19.672Z,12.85
2019-04-07T22:24:47.739Z,13.75
2019-04-07T22:27:21.225Z,13.70
2019-04-07T22:29:43.571Z,13.73
2019-04-07T22:32:11.695Z,13.50
2019-04-07T22:34:39.992Z,13.35
2019-04-07T22:37:08.158Z,13.18
2019-04-07T22:39:36.246Z,13.32
2019-04-07T22:42:06.390Z,12.90
2019-04-07T22:44:34.167Z,13.77
2019-04-07T22:47:02.851Z,13.55
2019-04-07T22:49:32.148Z,12.80
2019-04-07T22:51:58.453Z,14.80
2019-04-07T22:54:30.181Z,13.55
2019-04-07T22:56:54.619Z,13.77
2019-04-07T22:59:22.787Z,13.85
2019-04-07T23:01:51.480Z,13.85
2019-04-07T23:04:18.929Z,14.70
2019-04-07T23:06:46.797Z,13.45
2019-04-07T23:09:15.483Z,13.32
2019-04-07T23:11:42.648Z,15.38
2019-04-07T23:14:11.528Z,13.38
2019-04-07T23:16:38.878Z,14.07
2019-04-07T23:19:06.944Z,14.15
2019-04-07T23:21:35.011Z,14.40
2019-04-07T23:24:03.803Z,13.95
2019-04-07T23:26:32.037Z,14.65
2019-04-07T23:28:59.530Z,14.23
2019-04-07T23:31:27.886Z,14.40
2019-04-07T23:33:56.535Z,14.85
2019-04-07T23:36:24.228Z,15.50
2019-04-07T23:38:52.007Z,14.43
2019-04-07T23:41:20.200Z,15.13
2019-04-07T23:43:49.351Z,13.95
2019-04-07T23:46:22.835Z,15.38
2019-04-07T23:48:45.647Z,15.40
2019-04-07T23:51:14.310Z,14.90
2019-04-07T23:54:00.161Z,15.88
2019-04-07T23:56:28.166Z,14.52
2019-04-07T23:58:56.296Z,14.45
